Reynoldsville, PA (15851)

5:17 AM EST on November 28, 2014 (GMT -0500)
Holly Terrace | Change Station
CLOSE
Current Station
Personal Weather Station
Location: Falls Creek, PA
Elevation: 1473 ft
Nearby Weather Stations

Elev 1473 ft 41.14 °N, 78.81 °W | Updated 3 seconds ago

Overcast
Overcast
24.1 °F
Feels Like 16 °F
N
7.0
Wind Variable Wind from WNW
Gusts 9.0 mph

Today
High -- | Low -- °F
--% Chance of Precip.
Yesterday
High -- | Low -- °F
Precip. -- in
7:18 AM 4:48 PM
Waxing Crescent, 39% visible
Pressure 30.22 in
Visibility 10.0 miles
Clouds Scattered Clouds 1600 ft
Mostly Cloudy 2700 ft
Overcast 3200 ft
Windchill 16 °F
Dew Point 23 °F
Humidity 95%
Rainfall 0.00 in
Snow Depth Not available.
UV 0 out of 12
Pollen .10 out of 12
Air Quality Not available.
Flu Activity Not available.
METAR KDUJ 280953Z AUTO 29007KT 10SM SCT016 BKN027 OVC032 M04/M07 A3015 RMK AO2 SNB0855E05B27E35 SLP231 P0000 T10441067

More Conditions Fewer Conditions

Pressure 30.22 in
Visibility 10.0 miles
Clouds Scattered Clouds 1600 ft
Mostly Cloudy 2700 ft
Overcast 3200 ft
Windchill 16 °F
Dew Point 23 °F
Humidity 95%
Rainfall 0.00 in
Snow Depth Not available.
UV 0 out of 12
Pollen .10 out of 12
Air Quality Not available.
Flu Activity Not available.
METAR KDUJ 280953Z AUTO 29007KT 10SM SCT016 BKN027 OVC032 M04/M07 A3015 RMK AO2 SNB0855E05B27E35 SLP231 P0000 T10441067

More Conditions Fewer Conditions

10-Day Weather Forecast

Almanac

Astronomy

Nov. 28, 2014 Rise Set
Actual Time
Civil Twilight
Nautical Twilight
Astronomical Twilight
Moon
Length of Visible Light
Length of Day
Tomorrow will be .
, % of the Moon is Illuminated

Today's Extremes

State Highs State Lows

Community

WunderPhotos

Upload Photos

1,774,192 photos uploaded!

WunderBlogs® & News

Nearby

Air Quality

  Air Quality AQ Index Pollutant
Not available.

Snow Depth

Station Depth Elevation

Earthquake Activity

City Distance Mag. Time & Date
Minimum magnitude displayed is 2.5.

Coastal Water Temperatures

Place Temperature

Nearby Weather Stations